Time;durP1;ratioP1;P1;durP2;ratioP2;P2;SDS_P1;SDS_P2;PMS_P1;PMS_P2;Temp;Humidity;BMP_temperature;BMP_pressure;BME280_temperature;BME280_humidity;BME280_pressure;Samples;Min_cycle;Max_cycle;Signal;HPM_P1;HPM_P2
2020/12/24 00:00:12;;;;;;;1.50;1.30;;;;;;;9.10;100.00;99820.69;5045799;28;20564;-77
2020/12/24 00:02:39;;;;;;;1.87;1.67;;;;;;;9.07;100.00;99832.94;5026430;28;20587;-77
2020/12/24 00:05:05;;;;;;;2.63;1.80;;;;;;;9.03;100.00;99829.59;5039971;28;20295;-77
2020/12/24 00:07:31;;;;;;;1.57;1.40;;;;;;;9.03;100.00;99828.75;5042948;28;20196;-77
2020/12/24 00:09:57;;;;;;;2.00;1.47;;;;;;;9.01;100.00;99825.38;5028101;28;20768;-77
2020/12/24 00:12:23;;;;;;;1.50;1.40;;;;;;;9.02;100.00;99819.25;5043040;28;20592;-77
2020/12/24 00:14:49;;;;;;;1.30;1.20;;;;;;;9.03;100.00;99826.16;5041375;28;20333;-77
2020/12/24 00:17:15;;;;;;;2.27;1.27;;;;;;;9.03;100.00;99823.56;5043283;28;20739;-77
2020/12/24 00:19:41;;;;;;;1.90;1.43;;;;;;;9.03;100.00;99818.34;5043449;28;20786;-77
2020/12/24 00:22:07;;;;;;;4.23;1.60;;;;;;;9.01;100.00;99815.81;5048473;28;20672;-77
2020/12/24 00:24:33;;;;;;;2.10;1.40;;;;;;;9.02;100.00;99812.31;5046476;28;20215;-77
2020/12/24 00:27:00;;;;;;;2.80;1.20;;;;;;;8.98;100.00;99810.69;5046078;28;20198;-77
2020/12/24 00:29:27;;;;;;;2.33;1.40;;;;;;;8.95;100.00;99807.34;5046622;28;20222;-77
2020/12/24 00:31:52;;;;;;;1.33;1.17;;;;;;;8.97;100.00;99805.53;5025557;28;20337;-77
2020/12/24 00:34:18;;;;;;;1.57;1.40;;;;;;;9.00;100.00;99801.09;5045934;28;20206;-77
2020/12/24 00:36:44;;;;;;;1.43;1.20;;;;;;;9.01;100.00;99799.38;5045977;28;20695;-77
2020/12/24 00:39:10;;;;;;;2.50;1.40;;;;;;;8.99;100.00;99803.72;5048812;28;20669;-77
2020/12/24 00:41:36;;;;;;;1.43;1.33;;;;;;;9.02;100.00;99798.44;5050676;28;20198;-77
2020/12/24 00:44:02;;;;;;;2.13;1.10;;;;;;;9.02;100.00;99794.13;5048419;28;20274;-77
2020/12/24 00:46:29;;;;;;;1.63;1.30;;;;;;;9.01;100.00;99795.00;5051719;28;20214;-77
2020/12/24 00:48:55;;;;;;;3.53;1.17;;;;;;;8.98;100.00;99797.69;5029697;28;20234;-77
2020/12/24 00:51:21;;;;;;;1.40;1.30;;;;;;;8.97;100.00;99792.53;5035645;28;20223;-77
2020/12/24 00:53:49;;;;;;;1.37;1.20;;;;;;;8.96;100.00;99791.69;5045286;28;20274;-77
2020/12/24 00:56:15;;;;;;;1.77;1.20;;;;;;;8.87;100.00;99784.22;5033752;28;20297;-77
2020/12/24 00:58:53;;;;;;;1.17;1.03;;;;;;;8.82;100.00;99796.50;5030359;28;20218;-77
2020/12/24 01:01:19;;;;;;;1.27;0.90;;;;;;;8.75;100.00;99795.84;5047898;28;20200;-77
2020/12/24 01:03:46;;;;;;;1.30;1.20;;;;;;;8.71;100.00;99792.50;5029596;28;20245;-77
2020/12/24 01:06:12;;;;;;;1.27;1.17;;;;;;;8.69;100.00;99799.50;5033082;28;20235;-77
2020/12/24 01:08:38;;;;;;;3.80;1.20;;;;;;;8.69;100.00;99789.09;5039555;28;20212;-77
2020/12/24 01:11:06;;;;;;;2.67;0.90;;;;;;;8.65;100.00;99792.69;5048016;28;20821;-77
2020/12/24 01:13:32;;;;;;;2.50;1.33;;;;;;;8.62;100.00;99799.72;5039077;28;20552;-77
2020/12/24 01:15:57;;;;;;;1.60;1.13;;;;;;;8.63;100.00;99806.63;5046085;28;20211;-77
2020/12/24 01:18:23;;;;;;;1.53;1.37;;;;;;;8.57;100.00;99812.03;5032510;28;20207;-77
2020/12/24 01:20:50;;;;;;;1.70;1.30;;;;;;;8.51;100.00;99813.03;5043131;28;20209;-77
2020/12/24 01:23:16;;;;;;;2.07;1.30;;;;;;;8.49;100.00;99807.03;5044781;28;20217;-77
2020/12/24 01:25:42;;;;;;;1.37;1.27;;;;;;;8.42;100.00;99811.56;5042787;28;20207;-77
2020/12/24 01:28:08;;;;;;;1.37;1.27;;;;;;;8.41;100.00;99815.06;5038530;28;20293;-77
2020/12/24 01:30:34;;;;;;;1.30;1.20;;;;;;;8.38;100.00;99816.88;5029734;28;20225;-77
2020/12/24 01:32:59;;;;;;;1.80;1.60;;;;;;;8.33;100.00;99820.44;5044419;28;20218;-77
2020/12/24 01:35:25;;;;;;;1.43;1.30;;;;;;;8.37;100.00;99823.81;5044209;28;20201;-77
2020/12/24 01:37:52;;;;;;;1.47;1.20;;;;;;;8.41;100.00;99828.03;5044895;28;20222;-77
2020/12/24 01:40:18;;;;;;;1.30;1.20;;;;;;;8.43;100.00;99807.25;5046048;28;20285;-77
2020/12/24 01:42:44;;;;;;;1.67;1.30;;;;;;;8.42;100.00;99814.16;5046551;28;20703;-77
2020/12/24 01:45:10;;;;;;;4.53;1.30;;;;;;;8.40;100.00;99797.75;5039581;28;20238;-77
2020/12/24 01:47:36;;;;;;;2.40;1.37;;;;;;;8.33;100.00;99794.47;5045925;28;20201;-77
2020/12/24 01:50:03;;;;;;;1.87;1.33;;;;;;;8.31;100.00;99787.66;5050555;28;20228;-77
2020/12/24 01:52:32;;;;;;;2.10;1.03;;;;;;;8.31;100.00;99790.25;5045825;28;20213;-77
2020/12/24 01:55:00;;;;;;;1.23;1.13;;;;;;;8.28;100.00;99782.53;5046846;28;20231;-77
2020/12/24 01:57:27;;;;;;;1.63;1.40;;;;;;;8.21;100.00;99797.44;5022959;28;20220;-77
2020/12/24 01:59:55;;;;;;;1.50;1.10;;;;;;;8.17;100.00;99789.81;5045003;28;20222;-77
2020/12/24 02:02:21;;;;;;;2.23;1.30;;;;;;;8.14;100.00;99785.53;5043587;28;20214;-77
2020/12/24 02:04:50;;;;;;;2.20;1.43;;;;;;;8.12;100.00;99782.13;5045193;28;20196;-77
2020/12/24 02:07:17;;;;;;;1.40;1.30;;;;;;;8.09;100.00;99774.44;5046691;28;20587;-77
2020/12/24 02:09:48;;;;;;;1.73;1.23;;;;;;;8.04;100.00;99773.72;5045108;28;20636;-77
2020/12/24 02:12:15;;;;;;;1.63;1.47;;;;;;;8.03;100.00;99772.88;5044950;28;20895;-77
2020/12/24 02:14:42;;;;;;;2.57;1.30;;;;;;;8.00;100.00;99756.53;5029338;28;20760;-77
2020/12/24 02:17:08;;;;;;;1.60;1.23;;;;;;;7.94;100.00;99758.41;5048701;28;20229;-77
2020/12/24 02:19:35;;;;;;;1.30;1.20;;;;;;;7.90;100.00;99754.22;5034401;28;20230;-77
2020/12/24 02:22:02;;;;;;;1.83;1.73;;;;;;;7.85;100.00;99750.06;5038848;28;20209;-77
2020/12/24 02:24:28;;;;;;;2.40;1.50;;;;;;;7.80;100.00;99755.38;5043233;28;20638;-77
2020/12/24 02:26:54;;;;;;;3.07;1.47;;;;;;;7.80;100.00;99757.13;5043051;28;20698;-77
2020/12/24 02:29:20;;;;;;;1.43;1.30;;;;;;;7.77;100.00;99764.13;5044192;28;20225;-77
2020/12/24 02:31:46;;;;;;;2.63;1.27;;;;;;;7.79;100.00;99761.44;5045424;28;20196;-77
2020/12/24 02:34:11;;;;;;;1.40;1.30;;;;;;;7.77;100.00;99758.94;5045350;28;20199;-77
2020/12/24 02:36:37;;;;;;;2.63;1.30;;;;;;;7.72;100.00;99754.72;5041419;28;20213;-77
2020/12/24 02:39:04;;;;;;;1.33;1.23;;;;;;;7.69;100.00;99753.09;5041248;28;20217;-77
2020/12/24 02:41:31;;;;;;;1.57;1.47;;;;;;;7.71;100.00;99747.88;5041887;28;20740;-77
2020/12/24 02:43:56;;;;;;;1.30;1.20;;;;;;;7.70;100.00;99744.38;5057743;28;20657;-77
2020/12/24 02:46:22;;;;;;;2.80;1.40;;;;;;;7.70;100.00;99746.16;5047268;28;20201;-77
2020/12/24 02:48:48;;;;;;;3.33;1.47;;;;;;;7.75;100.00;99750.31;5046858;28;20252;-77
2020/12/24 02:51:14;;;;;;;1.70;1.50;;;;;;;7.74;100.00;99759.00;5046353;28;20227;-77
2020/12/24 02:53:40;;;;;;;2.77;1.30;;;;;;;7.74;100.00;99745.19;5047820;28;20207;-77
2020/12/24 02:56:07;;;;;;;1.40;1.30;;;;;;;7.75;100.00;99742.53;5051984;28;20200;-77
2020/12/24 02:58:33;;;;;;;2.33;1.53;;;;;;;7.76;100.00;99751.19;5052331;28;20275;-77
2020/12/24 03:00:59;;;;;;;1.50;1.40;;;;;;;7.80;100.00;99755.38;5049981;28;20239;-77
2020/12/24 03:03:25;;;;;;;1.47;1.37;;;;;;;7.83;100.00;99746.63;5046229;28;20284;-77
2020/12/24 03:05:51;;;;;;;1.83;1.33;;;;;;;7.85;100.00;99747.47;5050904;28;20200;-77
2020/12/24 03:08:17;;;;;;;1.40;1.13;;;;;;;7.83;100.00;99746.63;5043690;28;20662;-78
2020/12/24 03:10:44;;;;;;;2.33;1.50;;;;;;;7.81;100.00;99751.91;5051814;28;20220;-79
2020/12/24 03:13:11;;;;;;;1.40;1.30;;;;;;;7.78;100.00;99755.41;5044950;28;20266;-78
2020/12/24 03:15:37;;;;;;;1.37;1.27;;;;;;;7.76;100.00;99752.03;5049096;28;20678;-77
2020/12/24 03:18:03;;;;;;;1.50;1.40;;;;;;;7.78;100.00;99754.56;5029071;28;20217;-80
2020/12/24 03:20:29;;;;;;;1.50;1.40;;;;;;;7.82;100.00;99755.34;5049769;28;20221;-81
2020/12/24 03:22:55;;;;;;;1.47;1.37;;;;;;;7.79;100.00;99748.47;5045606;28;20248;-78
2020/12/24 03:25:20;;;;;;;3.40;1.57;;;;;;;7.74;100.00;99743.44;5049277;28;20572;-78
2020/12/24 03:27:46;;;;;;;2.20;1.60;;;;;;;7.74;100.00;99738.25;5044468;28;20197;-76
2020/12/24 03:30:13;;;;;;;2.27;1.40;;;;;;;7.74;100.00;99734.81;5029718;28;20226;-77
2020/12/24 03:32:39;;;;;;;2.90;1.50;;;;;;;7.71;100.00;99720.16;5052888;28;20197;-77
2020/12/24 03:35:06;;;;;;;4.83;1.40;;;;;;;7.72;100.00;99718.41;5041710;28;20279;-78
2020/12/24 03:37:32;;;;;;;2.90;1.37;;;;;;;7.74;100.00;99714.06;5045277;28;20571;-77
2020/12/24 03:40:01;;;;;;;1.43;1.30;;;;;;;7.70;100.00;99713.25;5042278;28;20235;-77
2020/12/24 03:42:27;;;;;;;1.63;1.53;;;;;;;7.71;100.00;99702.00;5048599;28;20269;-77
2020/12/24 03:44:53;;;;;;;2.27;1.50;;;;;;;7.67;100.00;99709.91;5043587;28;20207;-78
2020/12/24 03:47:20;;;;;;;1.47;1.37;;;;;;;7.69;100.00;99711.56;5045661;28;20255;-77
2020/12/24 03:49:45;;;;;;;1.70;1.40;;;;;;;7.72;100.00;99708.03;5042564;28;20231;-76
2020/12/24 03:52:11;;;;;;;1.77;1.67;;;;;;;7.72;100.00;99708.03;5035132;28;20288;-76
2020/12/24 03:54:37;;;;;;;2.93;1.40;;;;;;;7.72;100.00;99687.25;5049941;28;20201;-78
2020/12/24 03:57:03;;;;;;;2.73;1.60;;;;;;;7.70;100.00;99684.72;5042971;28;20692;-77
2020/12/24 03:59:29;;;;;;;2.93;1.50;;;;;;;7.69;100.00;99680.44;5041790;28;20229;-77
2020/12/24 04:01:55;;;;;;;1.60;1.50;;;;;;;7.66;100.00;99674.50;5042880;28;20218;-80
2020/12/24 04:04:22;;;;;;;2.30;1.40;;;;;;;7.65;100.00;99698.72;5048932;28;20207;-77
2020/12/24 04:06:47;;;;;;;1.77;1.47;;;;;;;7.67;100.00;99691.75;5042872;28;20211;-77
2020/12/24 04:09:13;;;;;;;1.27;1.20;;;;;;;7.72;100.00;99697.66;5040572;28;20265;-79
2020/12/24 04:11:39;;;;;;;1.40;1.30;;;;;;;7.73;100.00;99688.97;5044892;28;20221;-77
2020/12/24 04:14:05;;;;;;;1.67;1.50;;;;;;;7.79;100.00;99673.22;5050895;28;20283;-77
2020/12/24 04:16:31;;;;;;;1.43;1.30;;;;;;;7.82;100.00;99678.31;5043982;28;20646;-79
2020/12/24 04:18:57;;;;;;;3.63;1.47;;;;;;;7.81;100.00;99674.03;5044804;28;20232;-77
2020/12/24 04:21:23;;;;;;;1.53;1.40;;;;;;;7.79;100.00;99670.63;5048448;28;20280;-78
2020/12/24 04:23:49;;;;;;;1.60;1.50;;;;;;;7.77;100.00;99659.44;5048235;28;20353;-77
2020/12/24 04:26:19;;;;;;;2.63;1.63;;;;;;;7.77;100.00;99654.25;5051440;28;20557;-77
2020/12/24 04:28:45;;;;;;;2.33;1.73;;;;;;;7.79;100.00;99652.44;5029187;28;20230;-79
2020/12/24 04:31:11;;;;;;;2.53;1.90;;;;;;;7.83;100.00;99655.81;5052183;28;20627;-77
2020/12/24 04:33:38;;;;;;;2.27;2.07;;;;;;;7.83;100.00;99658.41;5048268;28;20210;-79
2020/12/24 04:36:04;;;;;;;3.20;1.83;;;;;;;7.83;100.00;99661.00;5054518;28;20200;-82
2020/12/24 04:38:31;;;;;;;5.30;2.10;;;;;;;7.82;100.00;99665.34;5053501;28;20282;-80
2020/12/24 04:40:57;;;;;;;1.97;1.50;;;;;;;7.82;100.00;99667.09;5047865;28;20213;-77
2020/12/24 04:43:25;;;;;;;2.67;1.57;;;;;;;7.86;100.00;99663.50;5046023;28;20205;-81
2020/12/24 04:45:52;;;;;;;1.70;1.60;;;;;;;7.86;100.00;99660.91;5045806;28;20202;-79
2020/12/24 04:48:19;;;;;;;1.50;1.40;;;;;;;7.88;100.00;99643.53;5048892;28;20214;-79
2020/12/24 04:50:49;;;;;;;3.20;1.60;;;;;;;7.86;100.00;99640.16;5055488;28;20224;-78
2020/12/24 04:53:15;;;;;;;3.53;1.67;;;;;;;7.86;100.00;99629.78;5053759;28;20198;-77
2020/12/24 04:55:42;;;;;;;1.70;1.43;;;;;;;7.84;100.00;99632.41;5047991;28;20202;-77
2020/12/24 04:58:09;;;;;;;1.63;1.53;;;;;;;7.86;100.00;99640.16;5049511;28;20225;-77
2020/12/24 05:00:36;;;;;;;1.50;1.40;;;;;;;7.85;100.00;99639.31;5027964;28;20237;-78
2020/12/24 05:03:07;;;;;;;1.80;1.70;;;;;;;7.87;100.00;99640.09;5053285;28;20562;-79
2020/12/24 05:05:34;;;;;;;2.27;1.60;;;;;;;7.83;100.00;99642.81;5046155;28;20208;-77
2020/12/24 05:08:02;;;;;;;2.47;1.40;;;;;;;7.81;100.00;99635.13;5043673;28;20237;-79
2020/12/24 05:10:28;;;;;;;1.83;1.70;;;;;;;7.79;100.00;99618.72;5048121;28;20227;-77
2020/12/24 05:12:55;;;;;;;2.97;1.80;;;;;;;7.81;100.00;99618.69;5051714;28;20554;-77
2020/12/24 05:15:26;;;;;;;1.97;1.53;;;;;;;7.80;100.00;99617.84;5049828;28;20204;-79
2020/12/24 05:17:52;;;;;;;1.60;1.50;;;;;;;7.78;100.00;99614.44;5055639;28;20224;-77
2020/12/24 05:20:17;;;;;;;1.90;1.60;;;;;;;7.81;100.00;99621.28;5051071;28;20673;-78
2020/12/24 05:22:43;;;;;;;2.03;1.80;;;;;;;7.82;100.00;99625.56;5048785;28;20345;-80
2020/12/24 05:25:11;;;;;;;1.60;1.50;;;;;;;7.84;100.00;99623.78;5049594;28;20211;-80
2020/12/24 05:27:38;;;;;;;1.43;1.33;;;;;;;7.84;100.00;99628.97;5049007;28;20200;-77
2020/12/24 05:30:04;;;;;;;1.73;1.63;;;;;;;7.85;100.00;99630.69;5031354;28;20228;-82
2020/12/24 05:32:31;;;;;;;1.43;1.33;;;;;;;7.84;100.00;99629.81;5045663;28;20219;-77
2020/12/24 05:35:05;;;;;;;5.17;1.60;;;;;;;7.92;100.00;99637.38;5051822;28;20201;-77
2020/12/24 05:37:31;;;;;;;4.87;1.60;;;;;;;8.00;100.00;99645.75;5047117;28;20204;-77
2020/12/24 05:39:57;;;;;;;3.40;1.40;;;;;;;8.01;100.00;99649.22;5049399;28;20222;-77
2020/12/24 05:42:24;;;;;;;2.83;1.27;;;;;;;7.97;100.00;99644.13;5043107;28;20228;-77
2020/12/24 05:44:51;;;;;;;3.23;1.30;;;;;;;8.00;100.00;99652.69;5053685;28;20193;-77
2020/12/24 05:47:27;;;;;;;3.43;1.50;;;;;;;8.05;100.00;99672.44;5053926;28;20189;-79
2020/12/24 05:49:53;;;;;;;1.93;1.53;;;;;;;8.09;100.00;99668.00;5048740;28;20221;-78
2020/12/24 05:52:19;;;;;;;2.33;1.30;;;;;;;8.11;100.00;99661.03;5042499;28;20192;-78
2020/12/24 05:54:47;;;;;;;1.97;1.40;;;;;;;8.08;99.78;99668.91;5048045;28;20207;-77
2020/12/24 05:57:13;;;;;;;1.90;1.17;;;;;;;8.03;99.13;99670.78;5048982;28;20293;-78
2020/12/24 05:59:41;;;;;;;2.70;1.30;;;;;;;8.00;97.46;99691.66;5032873;28;20225;-78
2020/12/24 06:02:15;;;;;;;1.57;1.17;;;;;;;7.88;98.39;99695.44;5052083;28;20200;-78
2020/12/24 06:04:50;;;;;;;1.70;1.20;;;;;;;7.84;96.29;99699.88;5047605;28;20197;-77
2020/12/24 06:07:30;;;;;;;3.00;1.13;;;;;;;7.93;95.10;99701.34;5055800;28;20194;-77
2020/12/24 06:10:04;;;;;;;2.20;1.07;;;;;;;7.95;95.02;99697.00;5046063;28;20223;-77
2020/12/24 06:12:30;;;;;;;2.53;1.20;;;;;;;7.89;95.32;99689.38;5046564;28;20193;-78
2020/12/24 06:14:58;;;;;;;1.67;1.27;;;;;;;7.81;95.24;99696.53;5045962;28;20282;-79
2020/12/24 06:17:25;;;;;;;0.80;0.80;;;;;;;7.70;95.03;99692.50;5052419;28;20220;-77
2020/12/24 06:19:53;;;;;;;3.33;0.80;;;;;;;7.67;95.34;99686.56;5048466;28;20228;-76
2020/12/24 06:22:20;;;;;;;1.67;0.83;;;;;;;7.74;92.90;99694.13;5047149;28;20240;-77
2020/12/24 06:24:51;;;;;;;1.53;1.00;;;;;;;7.74;93.07;99696.72;5056976;28;20207;-77
2020/12/24 06:27:25;;;;;;;1.13;0.83;;;;;;;7.64;92.79;99704.81;5030995;28;20199;-79
2020/12/24 06:29:57;;;;;;;2.30;0.90;;;;;;;7.55;92.88;99716.31;5058380;28;20223;-78
2020/12/24 06:32:24;;;;;;;2.87;1.30;;;;;;;7.57;93.13;99723.13;5049134;28;20243;-77
2020/12/24 06:34:50;;;;;;;2.23;1.10;;;;;;;7.62;nan;99727.38;5052448;28;20206;-79
2020/12/24 06:37:19;;;;;;;2.00;1.10;;;;;;;7.57;91.24;99728.31;5045696;28;20299;-77
2020/12/24 06:39:47;;;;;;;2.70;0.90;;;;;;;7.46;92.09;99713.94;5055088;28;20609;-78
2020/12/24 06:42:38;;;;;;;1.60;0.97;;;;;;;7.30;92.64;99713.53;5046806;28;20203;-77
2020/12/24 06:45:05;;;;;;;0.97;0.87;;;;;;;7.18;93.02;99715.56;5031488;28;20588;-82
2020/12/24 06:47:31;;;;;;;1.90;0.90;;;;;;;7.20;91.66;99718.97;5040693;28;20564;-77
2020/12/24 06:49:57;;;;;;;1.10;1.00;;;;;;;7.21;92.22;99730.19;5056182;28;20211;-78
2020/12/24 06:52:29;;;;;;;3.77;1.10;;;;;;;7.15;92.40;99727.75;5049743;28;20202;-78
2020/12/24 06:55:20;;;;;;;1.97;1.00;;;;;;;7.10;92.12;99727.03;5047618;28;20277;-78
2020/12/24 06:57:56;;;;;;;1.80;0.90;;;;;;;7.05;91.25;99728.88;5025687;28;20683;-77
2020/12/24 07:00:27;;;;;;;1.57;1.20;;;;;;;6.92;92.44;99723.19;5037728;28;20211;-78
2020/12/24 07:02:53;;;;;;;1.97;1.20;;;;;;;6.80;91.95;99724.31;5029891;28;20261;-77
2020/12/24 07:05:43;;;;;;;2.03;0.60;;;;;;;6.66;92.49;99726.41;5050521;28;20211;-77
2020/12/24 07:08:11;;;;;;;1.23;0.80;;;;;;;6.56;93.13;99730.94;5039342;28;20295;-77
2020/12/24 07:10:49;;;;;;;2.30;0.77;;;;;;;6.48;93.36;99720.78;5057638;28;20305;-78
2020/12/24 07:13:34;;;;;;;2.73;1.20;;;;;;;6.39;93.87;99721.84;5047964;28;20213;-78
2020/12/24 07:16:00;;;;;;;2.40;1.00;;;;;;;6.39;93.36;99721.84;5031065;28;20791;-78
2020/12/24 07:18:27;;;;;;;1.00;0.90;;;;;;;6.33;93.23;99714.25;5048093;28;20304;-78
2020/12/24 07:20:54;;;;;;;1.53;1.00;;;;;;;6.31;93.21;99716.00;5057493;28;20454;-78
2020/12/24 07:23:30;;;;;;;2.23;1.40;;;;;;;6.27;94.11;99726.47;5031526;28;20211;-78
2020/12/24 07:25:58;;;;;;;1.83;1.20;;;;;;;6.24;94.00;99736.00;5049881;28;20223;-78
2020/12/24 07:28:29;;;;;;;3.53;1.00;;;;;;;6.32;93.35;99732.41;5050655;28;20202;-78
2020/12/24 07:30:59;;;;;;;2.00;1.00;;;;;;;6.35;92.15;99740.94;5049118;28;20203;-78
2020/12/24 07:33:25;;;;;;;1.93;1.20;;;;;;;6.33;90.44;99737.53;5050984;28;20202;-78
2020/12/24 07:35:52;;;;;;;2.83;0.97;;;;;;;6.31;89.40;99741.03;5049692;28;20195;-78
2020/12/24 07:38:19;;;;;;;1.10;0.90;;;;;;;6.30;90.17;99739.31;5053060;28;20224;-78
2020/12/24 07:40:46;;;;;;;1.70;0.90;;;;;;;6.22;89.45;99735.16;5049938;28;20222;-78
2020/12/24 07:43:12;;;;;;;1.30;1.10;;;;;;;6.17;89.76;99726.66;5051691;28;20203;-78
2020/12/24 07:45:39;;;;;;;2.10;1.10;;;;;;;6.18;88.87;99743.06;5049140;28;20344;-78
2020/12/24 07:48:15;;;;;;;4.77;1.00;;;;;;;6.21;87.12;99741.25;5057348;28;20206;-78
2020/12/24 07:50:42;;;;;;;2.97;1.17;;;;;;;6.18;87.73;99733.53;5049649;28;20610;-78
2020/12/24 07:53:09;;;;;;;3.47;0.80;;;;;;;6.14;88.09;99738.81;5050358;28;20191;-78
2020/12/24 07:55:35;;;;;;;2.67;0.97;;;;;;;6.09;87.42;99740.69;5038665;28;20203;-78
2020/12/24 07:58:09;;;;;;;4.43;1.50;;;;;;;5.98;87.39;99739.16;5054150;28;20200;-78
2020/12/24 08:00:42;;;;;;;2.87;1.20;;;;;;;6.01;86.74;99743.41;5044005;28;20231;-77
2020/12/24 08:03:09;;;;;;;3.80;1.20;;;;;;;6.00;85.91;99741.72;5056655;28;20198;-78
2020/12/24 08:05:35;;;;;;;2.37;0.97;;;;;;;5.98;85.60;99744.34;5063599;28;20644;-78
2020/12/24 08:08:01;;;;;;;1.43;0.80;;;;;;;5.91;85.24;99732.41;5056683;28;20691;-78
2020/12/24 08:10:27;;;;;;;1.93;1.00;;;;;;;5.96;84.65;99743.53;5054198;28;20215;-78
2020/12/24 08:12:53;;;;;;;4.27;1.10;;;;;;;5.88;85.71;99745.38;5058638;28;20621;-78
2020/12/24 08:15:22;;;;;;;5.60;1.10;;;;;;;5.81;85.18;99741.22;5060998;28;20227;-78
2020/12/24 08:17:55;;;;;;;6.13;1.30;;;;;;;5.78;85.95;99721.44;5056374;28;20307;-78
2020/12/24 08:20:25;;;;;;;3.63;1.03;;;;;;;5.80;84.42;99730.00;5056480;28;20221;-78
2020/12/24 08:22:59;;;;;;;1.80;0.67;;;;;;;5.77;84.07;99729.22;5036266;28;20207;-77
2020/12/24 08:25:25;;;;;;;1.93;0.93;;;;;;;5.73;84.41;99715.50;5061606;28;20211;-78
2020/12/24 08:27:52;;;;;;;1.43;0.77;;;;;;;5.78;84.82;99718.00;5061947;28;20202;-78
2020/12/24 08:30:18;;;;;;;2.20;0.80;;;;;;;5.74;85.33;99711.19;5066661;28;20220;-77
2020/12/24 08:32:45;;;;;;;2.27;0.90;;;;;;;5.84;83.68;99718.72;5067631;28;20207;-78
2020/12/24 08:35:13;;;;;;;4.03;0.80;;;;;;;5.86;83.21;99722.13;5065237;28;20211;-78
2020/12/24 08:37:39;;;;;;;1.93;0.63;;;;;;;5.84;83.82;99718.72;5064215;28;20229;-78
2020/12/24 08:40:18;;;;;;;2.70;1.10;;;;;;;5.86;82.67;99727.31;5066273;28;20219;-78
2020/12/24 08:42:46;;;;;;;5.23;0.90;;;;;;;5.91;83.14;99731.53;5060834;28;20211;-78
2020/12/24 08:45:12;;;;;;;2.60;0.70;;;;;;;5.94;82.86;99721.09;5064987;28;20199;-78
2020/12/24 08:47:38;;;;;;;2.10;1.33;;;;;;;5.93;83.30;99733.22;5050913;28;20201;-78
2020/12/24 08:50:05;;;;;;;2.70;1.00;;;;;;;6.01;82.41;99746.84;5062014;28;20297;-78
2020/12/24 08:52:35;;;;;;;7.07;1.30;;;;;;;6.02;81.76;99733.03;5068165;28;20200;-78
2020/12/24 08:55:03;;;;;;;3.30;1.20;;;;;;;5.98;82.66;99721.06;5059628;28;20201;-78
2020/12/24 08:57:29;;;;;;;4.70;1.30;;;;;;;6.03;83.02;99723.53;5070571;28;20210;-78
2020/12/24 08:59:55;;;;;;;3.80;1.57;;;;;;;6.06;82.42;99721.72;5065186;28;20299;-78
2020/12/24 09:02:26;;;;;;;2.50;1.10;;;;;;;6.04;83.16;99720.06;5064550;28;20192;-78
2020/12/24 09:04:56;;;;;;;3.77;1.43;;;;;;;6.02;82.95;99724.44;5074829;28;20203;-78
2020/12/24 09:07:24;;;;;;;0.93;0.80;;;;;;;6.13;82.19;99729.38;5058730;28;20191;-78
2020/12/24 09:10:01;;;;;;;0.83;0.70;;;;;;;6.04;84.38;99728.66;5055450;28;20218;-78
2020/12/24 09:12:26;;;;;;;0.90;0.80;;;;;;;6.07;82.80;99727.78;5054026;28;20586;-78
2020/12/24 09:14:58;;;;;;;2.17;0.67;;;;;;;6.13;82.33;99727.63;5050868;28;20204;-78
2020/12/24 09:17:24;;;;;;;1.07;0.60;;;;;;;6.24;81.63;99728.25;5045594;28;20233;-78
2020/12/24 09:20:00;;;;;;;2.10;0.90;;;;;;;6.35;81.63;99735.75;5049587;28;20219;-79
2020/12/24 09:22:27;;;;;;;1.23;0.90;;;;;;;6.40;81.40;99723.56;5045341;28;20284;-80
2020/12/24 09:24:53;;;;;;;0.70;0.70;;;;;;;6.49;81.54;99725.09;5059737;28;20236;-78
2020/12/24 09:27:19;;;;;;;1.33;0.80;;;;;;;6.59;82.59;99717.94;5049027;28;20619;-78
2020/12/24 09:29:45;;;;;;;1.20;0.60;;;;;;;6.72;81.64;99727.13;5031880;28;20223;-78
2020/12/24 09:32:12;;;;;;;4.13;1.40;;;;;;;6.79;81.21;99733.84;5038767;28;20563;-78
2020/12/24 09:34:37;;;;;;;2.40;1.23;;;;;;;6.92;80.02;99730.94;5051254;28;20703;-78
2020/12/24 09:37:03;;;;;;;4.53;1.30;;;;;;;6.92;80.28;99723.19;5045004;28;20215;-79
2020/12/24 09:39:30;;;;;;;2.73;1.03;;;;;;;6.87;80.31;99730.22;5046449;28;20239;-78
2020/12/24 09:41:56;;;;;;;2.63;1.00;;;;;;;6.84;79.86;99731.13;5051863;28;20203;-78
2020/12/24 09:44:22;;;;;;;4.27;1.13;;;;;;;6.76;81.02;99718.38;5048349;28;20278;-79
2020/12/24 09:46:49;;;;;;;2.47;0.87;;;;;;;6.79;80.92;99725.25;5048635;28;20192;-79
2020/12/24 09:49:15;;;;;;;3.67;0.90;;;;;;;6.86;80.00;99731.09;5049328;28;20296;-79
2020/12/24 09:51:41;;;;;;;2.77;1.20;;;;;;;6.89;80.09;99728.44;5046983;28;20218;-79
2020/12/24 09:54:08;;;;;;;1.83;1.23;;;;;;;6.91;80.21;99732.69;5047949;28;20635;-78
2020/12/24 09:56:35;;;;;;;0.80;0.70;;;;;;;6.94;80.16;99730.00;5057855;28;20231;-79
2020/12/24 09:59:01;;;;;;;3.20;1.43;;;;;;;6.97;80.40;99721.31;5040572;28;20334;-79
2020/12/24 10:01:27;;;;;;;4.33;1.33;;;;;;;6.99;81.43;99715.19;5043326;28;20210;-79
2020/12/24 10:03:53;;;;;;;2.10;0.93;;;;;;;7.05;80.74;99715.94;5030528;28;20372;-79
2020/12/24 10:06:19;;;;;;;3.63;1.23;;;;;;;7.06;80.35;99720.22;5044195;28;20199;-79
2020/12/24 10:08:45;;;;;;;2.50;0.80;;;;;;;7.06;80.31;99712.47;5047222;28;20223;-79
2020/12/24 10:11:11;;;;;;;1.23;0.70;;;;;;;7.07;79.81;99706.38;5046004;28;20218;-79
2020/12/24 10:13:38;;;;;;;3.47;0.80;;;;;;;7.10;79.79;99712.31;5049685;28;20203;-79
2020/12/24 10:16:04;;;;;;;1.53;0.70;;;;;;;7.08;80.01;99705.47;5042842;28;20258;-79
2020/12/24 10:18:30;;;;;;;2.20;0.70;;;;;;;7.09;79.92;99699.38;5050336;28;20734;-79
2020/12/24 10:20:56;;;;;;;2.57;0.90;;;;;;;7.11;79.25;99682.94;5043751;28;20214;-79
2020/12/24 10:23:22;;;;;;;4.00;1.00;;;;;;;7.16;80.18;99673.28;5033755;28;20203;-79
2020/12/24 10:25:48;;;;;;;2.13;1.03;;;;;;;7.19;80.59;99675.81;5048930;28;20274;-79
2020/12/24 10:28:16;;;;;;;3.37;1.30;;;;;;;7.25;79.04;99677.38;5054184;28;20279;-79
2020/12/24 10:30:43;;;;;;;2.90;1.20;;;;;;;7.34;79.00;99681.44;5025769;28;20238;-79
2020/12/24 10:33:10;;;;;;;3.73;0.87;;;;;;;7.44;79.36;99674.25;5047515;28;20193;-79
2020/12/24 10:35:36;;;;;;;2.50;0.90;;;;;;;7.53;78.27;99682.63;5036791;28;20207;-79
2020/12/24 10:38:02;;;;;;;1.77;0.90;;;;;;;7.56;79.94;99671.28;5049483;28;20265;-79
2020/12/24 10:40:30;;;;;;;3.73;0.90;;;;;;;7.56;79.31;99659.19;5054709;28;20797;-79
2020/12/24 10:42:56;;;;;;;3.20;0.90;;;;;;;7.58;79.51;99656.53;5044329;28;20232;-80
2020/12/24 10:45:22;;;;;;;4.03;1.17;;;;;;;7.63;79.41;99651.22;5048945;28;20203;-79
2020/12/24 10:47:49;;;;;;;6.00;1.00;;;;;;;7.68;79.26;99652.78;5041148;28;20200;-79
2020/12/24 10:50:15;;;;;;;4.90;1.00;;;;;;;7.68;77.76;99651.94;5034241;28;20249;-80
2020/12/24 10:52:41;;;;;;;3.63;1.20;;;;;;;7.61;78.33;99640.03;5035164;28;20203;-80
2020/12/24 10:55:07;;;;;;;5.03;1.27;;;;;;;7.55;78.37;99644.50;5056329;28;20198;-80
2020/12/24 10:57:33;;;;;;;3.43;0.97;;;;;;;7.51;77.83;99644.63;5051323;28;20676;-80
2020/12/24 10:59:59;;;;;;;4.27;1.83;;;;;;;7.45;79.84;99642.25;5053252;28;20223;-80
2020/12/24 11:02:25;;;;;;;3.07;1.27;;;;;;;7.45;79.56;99631.88;5058218;28;20204;-80
2020/12/24 11:04:51;;;;;;;3.40;1.10;;;;;;;7.43;78.29;99636.25;5030366;28;20241;-81
2020/12/24 11:07:17;;;;;;;6.17;1.30;;;;;;;7.46;78.12;99636.13;5039194;28;20281;-80
2020/12/24 11:09:43;;;;;;;1.20;1.00;;;;;;;7.46;79.15;99629.22;5047736;28;20314;-81
2020/12/24 11:12:09;;;;;;;3.83;1.27;;;;;;;7.49;78.40;99633.47;5049421;28;20196;-80
2020/12/24 11:14:35;;;;;;;5.40;1.50;;;;;;;7.49;78.46;99623.09;5044841;28;20312;-81
2020/12/24 11:17:02;;;;;;;3.83;1.00;;;;;;;7.51;78.06;99616.97;5049721;28;20187;-80
2020/12/24 11:19:28;;;;;;;4.07;1.10;;;;;;;7.56;76.97;99617.69;5045045;28;20791;-80
2020/12/24 11:21:55;;;;;;;2.30;1.10;;;;;;;7.59;77.96;99601.19;5050248;28;20202;-80
2020/12/24 11:24:21;;;;;;;2.93;0.90;;;;;;;7.69;76.40;99600.00;5034638;28;20207;-80
2020/12/24 11:26:46;;;;;;;2.63;0.80;;;;;;;7.78;76.94;99601.47;5030083;28;20480;-80
2020/12/24 11:29:12;;;;;;;3.83;1.00;;;;;;;7.92;76.90;99604.47;5029549;28;20215;-80
2020/12/24 11:31:39;;;;;;;2.30;0.97;;;;;;;8.06;77.74;99604.03;5044388;28;20199;-80
2020/12/24 11:34:06;;;;;;;2.63;1.10;;;;;;;8.19;77.21;99595.84;5034866;28;20237;-80
2020/12/24 11:36:32;;;;;;;5.23;1.10;;;;;;;8.27;75.59;99599.06;5047683;28;20727;-81